createdAt,value
2023-07-18T00:10:48.660Z,67.66
2023-07-18T00:16:09.909Z,67.83
2023-07-18T00:21:30.505Z,68.03
2023-07-18T00:26:51.668Z,67.99
2023-07-18T00:32:12.399Z,67.88
2023-07-18T00:37:33.443Z,68.12
2023-07-18T00:42:53.814Z,68.10
2023-07-18T00:48:15.360Z,68.04
2023-07-18T00:53:38.941Z,68.03
2023-07-18T00:58:59.465Z,67.89
2023-07-18T01:04:19.699Z,67.78
2023-07-18T01:09:41.027Z,67.68
2023-07-18T01:15:01.885Z,67.69
2023-07-18T01:20:25.094Z,67.56
2023-07-18T01:25:45.623Z,67.88
2023-07-18T01:31:06.518Z,67.60
2023-07-18T01:36:29.614Z,67.59
2023-07-18T01:41:51.936Z,67.64
2023-07-18T01:47:13.678Z,67.55
2023-07-18T01:52:35.703Z,67.67
2023-07-18T01:57:56.494Z,67.69
2023-07-18T02:03:17.564Z,67.55
2023-07-18T02:08:38.325Z,67.60
2023-07-18T02:13:58.748Z,67.69
2023-07-18T02:19:20.804Z,67.63
2023-07-18T02:24:42.203Z,67.60
2023-07-18T02:30:03.158Z,67.73
2023-07-18T02:35:29.855Z,67.91
2023-07-18T02:40:53.254Z,67.79
2023-07-18T02:46:13.554Z,67.68
2023-07-18T02:51:34.451Z,67.61
2023-07-18T02:56:55.156Z,67.43
2023-07-18T03:02:16.735Z,67.57
2023-07-18T03:07:37.408Z,67.57
2023-07-18T03:12:58.779Z,67.22
2023-07-18T03:18:22.978Z,67.39
2023-07-18T03:23:44.325Z,67.44
2023-07-18T03:29:07.170Z,67.50
2023-07-18T03:34:29.752Z,67.38
2023-07-18T03:39:50.318Z,67.36
2023-07-18T03:45:14.233Z,67.14
2023-07-18T03:50:34.614Z,66.96
2023-07-18T03:56:02.627Z,67.05
2023-07-18T04:01:23.031Z,67.01
2023-07-18T04:06:46.601Z,66.96
2023-07-18T04:12:08.528Z,66.85
2023-07-18T04:17:29.425Z,66.81
2023-07-18T04:22:49.808Z,66.84
2023-07-18T04:28:10.243Z,66.60
2023-07-18T04:33:39.307Z,66.80
2023-07-18T04:38:59.814Z,66.52
2023-07-18T04:44:20.272Z,66.53
2023-07-18T04:49:40.758Z,66.55
2023-07-18T04:55:01.545Z,66.36
2023-07-18T05:00:22.218Z,66.29
2023-07-18T05:05:46.104Z,66.21
2023-07-18T05:11:06.759Z,66.32
2023-07-18T05:16:27.483Z,66.11
2023-07-18T05:21:47.949Z,66.05
2023-07-18T05:27:08.355Z,65.97
2023-07-18T05:32:29.274Z,65.59
2023-07-18T05:37:50.206Z,65.49
2023-07-18T05:43:10.899Z,65.16
2023-07-18T05:48:31.841Z,65.00
2023-07-18T05:53:52.553Z,63.95
2023-07-18T05:59:12.995Z,63.80
2023-07-18T06:04:36.368Z,63.57
2023-07-18T06:09:56.880Z,62.98
2023-07-18T06:15:17.498Z,62.99
2023-07-18T06:20:40.928Z,63.12
2023-07-18T06:26:01.643Z,63.10
2023-07-18T06:31:22.726Z,63.61
2023-07-18T06:36:45.459Z,64.07
2023-07-18T06:42:06.906Z,63.74
2023-07-18T06:47:27.494Z,63.68
2023-07-18T06:52:48.152Z,63.38
2023-07-18T06:58:11.798Z,63.08
2023-07-18T07:03:33.188Z,62.97
2023-07-18T07:08:53.994Z,62.90
2023-07-18T07:14:14.655Z,62.60
2023-07-18T07:19:37.010Z,62.46
2023-07-18T07:24:58.115Z,61.98
2023-07-18T07:30:18.818Z,61.94
2023-07-18T07:35:42.335Z,61.97
2023-07-18T07:41:03.037Z,61.93
2023-07-18T07:46:23.373Z,61.65
2023-07-18T07:51:44.010Z,61.35
2023-07-18T07:57:04.702Z,61.76
2023-07-18T08:02:25.504Z,62.04
2023-07-18T08:07:46.652Z,61.46
2023-07-18T08:13:07.346Z,61.61
2023-07-18T08:18:28.397Z,61.42
2023-07-18T08:23:49.919Z,60.86
2023-07-18T08:29:10.540Z,60.81
2023-07-18T08:34:31.446Z,60.68
2023-07-18T08:39:51.741Z,60.15
2023-07-18T08:45:16.045Z,60.22
2023-07-18T08:50:40.058Z,60.18
2023-07-18T08:56:00.884Z,59.89
2023-07-18T09:01:21.629Z,59.84
2023-07-18T09:07:00.368Z,59.90
2023-07-18T09:12:20.766Z,59.83
2023-07-18T09:17:41.781Z,59.50
2023-07-18T09:23:04.355Z,58.81
2023-07-18T09:28:32.737Z,57.27
2023-07-18T09:33:55.514Z,56.98
2023-07-18T09:39:16.020Z,56.59
2023-07-18T09:44:37.341Z,55.77
2023-07-18T09:49:57.960Z,54.76
2023-07-18T09:55:27.973Z,54.27
2023-07-18T10:00:50.117Z,54.18
2023-07-18T10:06:14.962Z,53.74
2023-07-18T10:11:58.902Z,52.41
2023-07-18T10:17:26.433Z,51.79
2023-07-18T10:22:49.238Z,53.45
2023-07-18T10:28:10.301Z,53.69
2023-07-18T10:33:30.744Z,53.00
2023-07-18T10:38:53.518Z,51.27
2023-07-18T10:44:15.902Z,49.91
2023-07-18T10:49:37.960Z,48.58
2023-07-18T10:54:59.206Z,49.26
2023-07-18T11:00:21.190Z,49.83
2023-07-18T11:05:43.343Z,49.65
2023-07-18T11:11:05.585Z,50.22
2023-07-18T11:16:26.442Z,50.42
2023-07-18T11:21:47.833Z,53.45
2023-07-18T11:27:20.260Z,52.94
2023-07-18T11:32:43.105Z,52.94
2023-07-18T11:38:03.700Z,53.38
2023-07-18T11:43:30.137Z,52.00
2023-07-18T11:48:54.957Z,50.93
2023-07-18T11:54:15.813Z,48.91
2023-07-18T11:59:36.364Z,48.85
2023-07-18T12:04:57.025Z,46.93
2023-07-18T12:10:19.311Z,45.05
2023-07-18T12:15:40.009Z,44.40
2023-07-18T12:21:00.857Z,44.96
2023-07-18T12:26:22.421Z,45.14
2023-07-18T12:31:46.212Z,44.68
2023-07-18T12:37:07.637Z,44.90
2023-07-18T12:42:28.362Z,45.85
2023-07-18T12:47:49.234Z,44.96
2023-07-18T12:53:09.951Z,44.11
2023-07-18T12:58:31.246Z,44.80
2023-07-18T13:03:51.942Z,45.67
2023-07-18T13:09:12.817Z,45.55
2023-07-18T13:14:33.404Z,46.23
2023-07-18T13:19:54.696Z,47.57
2023-07-18T13:25:15.859Z,47.79
2023-07-18T13:30:37.584Z,48.36
2023-07-18T13:35:59.246Z,48.32
2023-07-18T13:41:19.783Z,49.31
2023-07-18T13:46:40.113Z,48.85
2023-07-18T13:52:00.727Z,48.41
2023-07-18T13:57:21.174Z,48.63
2023-07-18T14:02:42.010Z,49.03
2023-07-18T14:08:04.140Z,49.26
2023-07-18T14:13:24.761Z,48.78
2023-07-18T14:18:45.446Z,49.33
2023-07-18T14:24:06.592Z,49.96
2023-07-18T14:29:27.114Z,49.56
2023-07-18T14:34:48.405Z,49.54
2023-07-18T14:40:09.568Z,50.12
2023-07-18T14:45:30.095Z,50.13
2023-07-18T14:50:51.342Z,50.52
2023-07-18T14:56:11.796Z,51.08
2023-07-18T15:01:32.499Z,51.07
2023-07-18T15:06:54.505Z,51.05
2023-07-18T15:12:14.816Z,49.20
2023-07-18T15:17:47.728Z,46.23
2023-07-18T15:23:09.237Z,46.22
2023-07-18T15:28:30.010Z,46.97
2023-07-18T15:33:50.666Z,46.93
2023-07-18T15:39:11.090Z,39.67
2023-07-18T15:44:31.780Z,37.15
2023-07-18T15:49:52.622Z,38.38
2023-07-18T15:55:13.148Z,41.18
2023-07-18T16:00:34.187Z,38.40
2023-07-18T16:05:54.752Z,37.05
2023-07-18T16:11:15.203Z,35.79
2023-07-18T16:16:35.730Z,34.80
2023-07-18T16:21:56.212Z,33.87
2023-07-18T16:27:16.664Z,32.20
2023-07-18T16:32:37.369Z,31.40
2023-07-18T16:37:57.782Z,33.24
2023-07-18T16:43:18.487Z,35.04
2023-07-18T16:48:39.016Z,35.16
2023-07-18T16:53:59.782Z,36.38
2023-07-18T16:59:20.218Z,39.50
2023-07-18T17:04:41.297Z,41.18
2023-07-18T17:10:02.839Z,40.84
2023-07-18T17:15:23.447Z,43.20
2023-07-18T17:20:44.319Z,44.36
2023-07-18T17:26:04.823Z,45.06
2023-07-18T17:31:25.707Z,46.04
2023-07-18T17:36:51.418Z,46.93
2023-07-18T17:42:12.119Z,46.59
2023-07-18T17:47:32.628Z,47.62
2023-07-18T17:52:53.390Z,47.42
2023-07-18T17:58:14.235Z,47.63
2023-07-18T18:03:35.220Z,49.17
2023-07-18T18:08:55.739Z,49.68
2023-07-18T18:14:16.459Z,50.92
2023-07-18T18:19:37.110Z,52.03
2023-07-18T18:24:57.672Z,51.66
2023-07-18T18:30:18.139Z,51.46
2023-07-18T18:43:05.948Z,52.96
2023-07-18T18:48:27.015Z,53.41
2023-07-18T18:53:47.482Z,53.50
2023-07-18T18:59:08.112Z,54.03
2023-07-18T19:04:28.729Z,54.49
2023-07-18T19:09:49.832Z,54.79
2023-07-18T19:15:10.578Z,55.13
2023-07-18T19:20:31.139Z,55.17
2023-07-18T19:25:51.734Z,55.71
2023-07-18T19:31:12.406Z,55.79
2023-07-18T19:36:34.505Z,56.18
2023-07-18T19:41:55.046Z,56.47
2023-07-18T19:47:15.902Z,56.48
2023-07-18T19:52:36.431Z,56.65
2023-07-18T19:57:56.905Z,57.08
2023-07-18T20:03:17.683Z,57.01
2023-07-18T20:08:38.261Z,57.16
2023-07-18T20:13:58.988Z,57.22
2023-07-18T20:19:19.576Z,57.17
2023-07-18T20:24:40.269Z,57.14
2023-07-18T20:30:00.737Z,56.88
2023-07-18T20:35:22.013Z,56.81
2023-07-18T20:40:43.358Z,56.94
2023-07-18T20:46:05.226Z,57.12
2023-07-18T20:51:26.245Z,57.26
2023-07-18T20:56:46.838Z,57.64
2023-07-18T21:02:07.942Z,57.94
2023-07-18T21:07:28.378Z,57.94
2023-07-18T21:12:49.835Z,58.21
2023-07-18T21:18:10.163Z,58.45
2023-07-18T21:23:30.532Z,58.63
2023-07-18T21:29:03.952Z,58.62
2023-07-18T21:34:26.053Z,59.02
2023-07-18T21:39:46.569Z,58.89
2023-07-18T21:45:07.531Z,58.97
2023-07-18T21:50:28.091Z,58.95
2023-07-18T21:55:48.433Z,58.84
2023-07-18T22:01:09.378Z,58.62
2023-07-18T22:06:30.029Z,58.64
2023-07-18T22:11:52.661Z,58.72
2023-07-18T22:17:13.688Z,58.75
2023-07-18T22:22:34.478Z,59.22
2023-07-18T22:27:55.381Z,59.24
2023-07-18T22:33:16.180Z,59.16
2023-07-18T22:38:36.864Z,59.56
2023-07-18T22:43:57.679Z,59.34
2023-07-18T22:49:18.253Z,59.19
2023-07-18T22:54:39.830Z,59.48
2023-07-18T23:00:00.710Z,59.65
2023-07-18T23:05:21.489Z,59.44
2023-07-18T23:11:01.085Z,59.73
2023-07-18T23:16:21.897Z,59.81
2023-07-18T23:21:42.765Z,60.35
2023-07-18T23:27:03.237Z,60.37
2023-07-18T23:32:23.643Z,60.87
2023-07-18T23:37:44.570Z,61.16
2023-07-18T23:43:08.068Z,61.29
2023-07-18T23:48:28.600Z,61.23
2023-07-18T23:53:48.896Z,61.21
2023-07-18T23:59:09.600Z,61.14
